CDT,Max TemperatureF,Mean TemperatureF,Min TemperatureF,Max Dew PointF,MeanDew PointF,Min DewpointF,Max Humidity, Mean Humidity, Min Humidity, Max Sea Level PressureIn, Mean Sea Level PressureIn, Min Sea Level PressureIn, Max VisibilityMiles, Mean VisibilityMiles, Min VisibilityMiles, Max Wind SpeedMPH, Mean Wind SpeedMPH, Max Gust SpeedMPH,PrecipitationIn, CloudCover, Events, WindDirDegrees
2014-3-1,57,50,42,39,34,30,66,56,47,30.17,30.11,30.05,10,10,10,12,4,,0.00,8,,80
2014-3-2,53,37,21,39,24,12,75,66,54,30.21,30.12,30.04,10,5,1,22,10,50,0.43,8,Thunderstorm,11
2014-3-3,21,16,12,10,6,1,68,62,57,30.43,30.34,30.11,10,8,1,25,13,32,0.00,6,,8
2014-3-4,28,22,15,21,12,5,74,64,58,30.36,30.26,30.18,10,9,5,8,4,,0.03,3,,67
2014-3-5,35,32,30,27,24,21,80,71,65,30.25,30.21,30.17,10,5,0,14,5,18,0.53,8,,59
2014-3-6,41,36,30,25,22,19,75,60,49,30.20,30.14,30.08,10,9,5,14,7,17,0.52,2,,34
2014-3-7,48,37,26,28,24,18,74,59,46,30.10,30.06,30.01,10,9,2,6,1,,0.54,0,,356
2014-3-8,57,44,32,45,33,23,75,65,58,30.27,30.14,30.04,10,8,3,15,5,20,0.12,1,,287
2014-3-9,51,43,35,36,30,25,75,63,50,30.35,30.26,30.16,10,8,3,13,8,17,0.00,2,,343
2014-3-10,66,52,39,45,38,30,71,59,40,30.17,30.01,29.88,10,9,4,15,7,20,0.00,0,,225
2014-3-11,75,60,46,54,48,39,76,60,44,29.87,29.73,29.58,10,10,4,14,6,21,0.00,1,,186
2014-3-12,64,50,35,54,31,19,72,52,37,30.17,29.90,29.53,10,10,10,25,14,38,0.00,5,,320
2014-3-13,60,44,28,30,25,19,70,48,29,30.28,30.18,30.11,10,10,10,13,3,16,0.00,0,,178
2014-3-14,64,54,44,34,30,27,50,39,29,30.11,30.07,30.01,10,10,10,24,10,38,0.00,1,,201
2014-3-15,68,54,39,45,39,30,75,56,43,30.11,30.02,29.90,10,10,9,14,4,17,0.00,2,,132
2014-3-16,59,47,35,46,36,23,77,70,55,29.93,29.80,29.69,10,7,3,29,11,37,0.82,8,,50
2014-3-17,42,36,30,28,24,18,75,61,55,29.93,29.89,29.83,10,10,6,17,11,28,0.00,6,,26
2014-3-18,57,44,30,39,32,21,75,62,51,29.94,29.85,29.72,10,8,3,22,5,28,0.00,1,,155
2014-3-19,59,50,42,43,36,30,67,54,44,30.17,29.99,29.82,10,10,10,21,11,32,0.00,2,,251
2014-3-20,64,48,33,34,28,25,75,47,24,30.23,30.15,30.07,10,10,4,10,3,,0.00,0,,266
2014-3-21,69,54,39,36,31,25,61,41,25,30.09,30.01,29.91,10,10,10,14,5,22,0.00,0,,180
2014-3-22,57,50,42,37,33,27,61,45,36,30.23,30.09,29.94,10,10,10,20,10,25,0.03,3,,16
2014-3-23,48,42,35,30,23,16,65,48,34,30.36,30.30,30.19,10,10,10,21,13,28,0.07,2,,12
2014-3-24,51,40,28,18,16,12,55,38,25,30.36,30.25,30.11,10,10,10,15,8,20,0.00,2,,40
2014-3-25,44,37,30,25,18,12,60,43,29,30.31,30.23,30.14,10,10,10,22,9,29,0.00,5,,329
2014-3-26,51,38,26,21,15,10,55,37,24,30.42,30.30,30.15,10,10,10,13,6,17,0.00,1,,121
2014-3-27,66,56,46,48,33,19,72,48,32,30.14,29.96,29.82,10,10,8,23,11,34,0.60,8,Thunderstorm,162
2014-3-28,62,58,53,54,51,45,77,72,67,30.00,29.93,29.83,10,8,2,14,9,22,0.86,8,Thunderstorm,359
2014-3-29,53,46,39,46,35,28,77,66,53,30.29,30.12,29.92,10,9,4,21,12,29,0.22,6,,358
2014-3-30,60,45,30,37,31,23,75,58,36,30.33,30.24,30.14,10,7,0,7,2,,0.00,0,,110
2014-3-31,73,57,41,43,35,28,66,43,27,30.14,30.06,29.91,10,10,10,16,6,25,0.00,3,,165